sensor_id;sensor_type;location;lat;lon;timestamp;P1;durP1;ratioP1;P2;durP2;ratioP2
50821;SDS011;36794;51.212;6.980;2023-07-31T00:00:14;15.25;;;4.45;;
50821;SDS011;36794;51.212;6.980;2023-07-31T00:02:41;14.82;;;4.90;;
50821;SDS011;36794;51.212;6.980;2023-07-31T00:05:08;16.67;;;4.68;;
50821;SDS011;36794;51.212;6.980;2023-07-31T00:07:34;14.32;;;4.70;;
50821;SDS011;36794;51.212;6.980;2023-07-31T00:10:00;12.43;;;4.70;;
50821;SDS011;36794;51.212;6.980;2023-07-31T00:12:27;11.15;;;4.60;;
50821;SDS011;36794;51.212;6.980;2023-07-31T00:14:53;16.98;;;4.60;;
50821;SDS011;36794;51.212;6.980;2023-07-31T00:17:19;14.13;;;4.78;;
50821;SDS011;36794;51.212;6.980;2023-07-31T00:19:45;13.52;;;4.63;;
50821;SDS011;36794;51.212;6.980;2023-07-31T00:22:11;18.38;;;4.72;;
50821;SDS011;36794;51.212;6.980;2023-07-31T00:24:37;16.55;;;4.78;;
50821;SDS011;36794;51.212;6.980;2023-07-31T00:27:03;14.57;;;4.50;;
50821;SDS011;36794;51.212;6.980;2023-07-31T00:29:29;14.05;;;4.45;;
50821;SDS011;36794;51.212;6.980;2023-07-31T00:31:55;10.55;;;4.57;;
50821;SDS011;36794;51.212;6.980;2023-07-31T00:34:21;12.10;;;4.45;;
50821;SDS011;36794;51.212;6.980;2023-07-31T00:36:47;13.63;;;4.78;;
50821;SDS011;36794;51.212;6.980;2023-07-31T00:39:13;11.60;;;4.25;;
50821;SDS011;36794;51.212;6.980;2023-07-31T00:41:39;11.20;;;3.85;;
50821;SDS011;36794;51.212;6.980;2023-07-31T00:44:05;16.83;;;4.15;;
50821;SDS011;36794;51.212;6.980;2023-07-31T00:46:31;19.00;;;4.57;;
50821;SDS011;36794;51.212;6.980;2023-07-31T00:48:57;12.88;;;4.50;;
50821;SDS011;36794;51.212;6.980;2023-07-31T00:51:23;18.70;;;4.32;;
50821;SDS011;36794;51.212;6.980;2023-07-31T00:53:49;12.10;;;3.67;;
50821;SDS011;36794;51.212;6.980;2023-07-31T00:56:15;13.35;;;4.05;;
50821;SDS011;36794;51.212;6.980;2023-07-31T00:58:41;13.20;;;4.20;;
50821;SDS011;36794;51.212;6.980;2023-07-31T01:01:07;11.88;;;4.63;;
50821;SDS011;36794;51.212;6.980;2023-07-31T01:03:33;13.80;;;4.20;;
50821;SDS011;36794;51.212;6.980;2023-07-31T01:11:02;17.58;;;4.32;;
50821;SDS011;36794;51.212;6.980;2023-07-31T01:13:29;13.70;;;4.30;;
50821;SDS011;36794;51.212;6.980;2023-07-31T01:15:55;12.55;;;4.18;;
50821;SDS011;36794;51.212;6.980;2023-07-31T01:18:21;13.63;;;4.35;;
50821;SDS011;36794;51.212;6.980;2023-07-31T01:20:47;12.00;;;4.05;;
50821;SDS011;36794;51.212;6.980;2023-07-31T01:28:11;9.82;;;3.80;;
50821;SDS011;36794;51.212;6.980;2023-07-31T01:30:41;18.65;;;5.05;;
50821;SDS011;36794;51.212;6.980;2023-07-31T01:33:08;11.95;;;4.35;;
50821;SDS011;36794;51.212;6.980;2023-07-31T01:35:38;13.90;;;4.00;;
50821;SDS011;36794;51.212;6.980;2023-07-31T01:38:04;12.73;;;3.63;;
50821;SDS011;36794;51.212;6.980;2023-07-31T01:40:30;13.27;;;3.95;;
50821;SDS011;36794;51.212;6.980;2023-07-31T01:42:56;12.45;;;3.80;;
50821;SDS011;36794;51.212;6.980;2023-07-31T01:45:22;14.82;;;4.25;;
50821;SDS011;36794;51.212;6.980;2023-07-31T01:47:48;13.82;;;4.07;;
50821;SDS011;36794;51.212;6.980;2023-07-31T01:50:14;12.48;;;3.90;;
50821;SDS011;36794;51.212;6.980;2023-07-31T01:52:40;15.90;;;4.40;;
50821;SDS011;36794;51.212;6.980;2023-07-31T01:55:06;12.27;;;4.28;;
50821;SDS011;36794;51.212;6.980;2023-07-31T01:57:32;12.13;;;4.40;;
50821;SDS011;36794;51.212;6.980;2023-07-31T01:59:58;15.00;;;4.07;;
50821;SDS011;36794;51.212;6.980;2023-07-31T02:02:24;16.13;;;4.50;;
50821;SDS011;36794;51.212;6.980;2023-07-31T02:04:50;15.50;;;4.35;;
50821;SDS011;36794;51.212;6.980;2023-07-31T02:07:16;14.30;;;4.50;;
50821;SDS011;36794;51.212;6.980;2023-07-31T02:09:42;13.70;;;3.90;;
50821;SDS011;36794;51.212;6.980;2023-07-31T02:12:08;10.55;;;3.90;;
50821;SDS011;36794;51.212;6.980;2023-07-31T02:14:34;15.32;;;4.18;;
50821;SDS011;36794;51.212;6.980;2023-07-31T02:17:00;19.50;;;4.50;;
50821;SDS011;36794;51.212;6.980;2023-07-31T02:19:26;13.43;;;3.75;;
50821;SDS011;36794;51.212;6.980;2023-07-31T02:21:52;15.18;;;4.43;;
50821;SDS011;36794;51.212;6.980;2023-07-31T02:24:18;13.20;;;4.47;;
50821;SDS011;36794;51.212;6.980;2023-07-31T02:26:44;12.77;;;3.78;;
50821;SDS011;36794;51.212;6.980;2023-07-31T02:29:10;14.50;;;4.85;;
50821;SDS011;36794;51.212;6.980;2023-07-31T02:31:36;15.23;;;4.32;;
50821;SDS011;36794;51.212;6.980;2023-07-31T02:34:02;17.40;;;3.88;;
50821;SDS011;36794;51.212;6.980;2023-07-31T02:36:27;20.08;;;4.30;;
50821;SDS011;36794;51.212;6.980;2023-07-31T02:38:53;15.65;;;3.83;;
50821;SDS011;36794;51.212;6.980;2023-07-31T02:41:20;12.98;;;4.13;;
50821;SDS011;36794;51.212;6.980;2023-07-31T02:43:46;14.45;;;4.40;;
50821;SDS011;36794;51.212;6.980;2023-07-31T02:46:12;16.63;;;4.40;;
50821;SDS011;36794;51.212;6.980;2023-07-31T02:48:38;20.73;;;4.43;;
50821;SDS011;36794;51.212;6.980;2023-07-31T02:51:04;14.85;;;4.05;;
50821;SDS011;36794;51.212;6.980;2023-07-31T02:53:30;12.10;;;3.90;;
50821;SDS011;36794;51.212;6.980;2023-07-31T02:55:56;12.77;;;3.92;;
50821;SDS011;36794;51.212;6.980;2023-07-31T02:58:21;17.45;;;3.83;;
50821;SDS011;36794;51.212;6.980;2023-07-31T03:00:47;12.70;;;4.20;;
50821;SDS011;36794;51.212;6.980;2023-07-31T03:03:13;12.10;;;3.92;;
50821;SDS011;36794;51.212;6.980;2023-07-31T03:05:39;19.17;;;3.95;;
50821;SDS011;36794;51.212;6.980;2023-07-31T03:08:05;15.82;;;4.03;;
50821;SDS011;36794;51.212;6.980;2023-07-31T03:10:32;9.45;;;3.75;;
50821;SDS011;36794;51.212;6.980;2023-07-31T03:12:58;12.65;;;3.42;;
50821;SDS011;36794;51.212;6.980;2023-07-31T03:15:23;12.60;;;4.00;;
50821;SDS011;36794;51.212;6.980;2023-07-31T03:17:49;10.18;;;3.80;;
50821;SDS011;36794;51.212;6.980;2023-07-31T03:20:15;12.32;;;4.13;;
50821;SDS011;36794;51.212;6.980;2023-07-31T03:22:41;11.98;;;3.65;;
50821;SDS011;36794;51.212;6.980;2023-07-31T03:25:07;15.40;;;4.10;;
50821;SDS011;36794;51.212;6.980;2023-07-31T03:27:35;10.63;;;3.67;;
50821;SDS011;36794;51.212;6.980;2023-07-31T03:30:02;16.23;;;4.50;;
50821;SDS011;36794;51.212;6.980;2023-07-31T03:32:28;13.07;;;4.50;;
50821;SDS011;36794;51.212;6.980;2023-07-31T03:34:54;11.50;;;3.88;;
50821;SDS011;36794;51.212;6.980;2023-07-31T03:37:20;17.50;;;4.10;;
50821;SDS011;36794;51.212;6.980;2023-07-31T03:39:45;23.02;;;4.47;;
50821;SDS011;36794;51.212;6.980;2023-07-31T03:42:11;15.80;;;4.38;;
50821;SDS011;36794;51.212;6.980;2023-07-31T03:44:37;19.17;;;4.30;;
50821;SDS011;36794;51.212;6.980;2023-07-31T03:47:03;13.77;;;3.90;;
50821;SDS011;36794;51.212;6.980;2023-07-31T03:49:30;15.07;;;3.70;;
50821;SDS011;36794;51.212;6.980;2023-07-31T03:51:56;15.95;;;4.55;;
50821;SDS011;36794;51.212;6.980;2023-07-31T03:54:22;10.80;;;3.60;;
50821;SDS011;36794;51.212;6.980;2023-07-31T03:56:48;15.30;;;4.18;;
50821;SDS011;36794;51.212;6.980;2023-07-31T03:59:13;12.35;;;4.20;;
50821;SDS011;36794;51.212;6.980;2023-07-31T04:01:39;12.68;;;3.88;;
50821;SDS011;36794;51.212;6.980;2023-07-31T04:04:05;16.60;;;4.32;;
50821;SDS011;36794;51.212;6.980;2023-07-31T04:06:31;17.67;;;4.50;;
50821;SDS011;36794;51.212;6.980;2023-07-31T04:08:57;13.25;;;4.38;;
50821;SDS011;36794;51.212;6.980;2023-07-31T04:11:23;12.32;;;4.05;;
50821;SDS011;36794;51.212;6.980;2023-07-31T04:13:49;10.30;;;4.00;;
50821;SDS011;36794;51.212;6.980;2023-07-31T04:16:15;13.68;;;4.90;;
50821;SDS011;36794;51.212;6.980;2023-07-31T04:18:41;10.93;;;4.47;;
50821;SDS011;36794;51.212;6.980;2023-07-31T04:21:07;12.27;;;3.88;;
50821;SDS011;36794;51.212;6.980;2023-07-31T04:23:33;10.73;;;3.90;;
50821;SDS011;36794;51.212;6.980;2023-07-31T04:25:59;14.52;;;4.65;;
50821;SDS011;36794;51.212;6.980;2023-07-31T04:28:25;16.13;;;4.10;;
50821;SDS011;36794;51.212;6.980;2023-07-31T04:30:51;15.60;;;4.45;;
50821;SDS011;36794;51.212;6.980;2023-07-31T04:33:18;12.10;;;4.13;;
50821;SDS011;36794;51.212;6.980;2023-07-31T04:35:49;10.82;;;3.70;;
50821;SDS011;36794;51.212;6.980;2023-07-31T04:38:17;20.05;;;4.68;;
50821;SDS011;36794;51.212;6.980;2023-07-31T04:40:43;11.68;;;4.00;;
50821;SDS011;36794;51.212;6.980;2023-07-31T04:43:09;15.43;;;4.72;;
50821;SDS011;36794;51.212;6.980;2023-07-31T04:45:35;10.02;;;4.50;;
50821;SDS011;36794;51.212;6.980;2023-07-31T04:48:00;12.07;;;4.00;;
50821;SDS011;36794;51.212;6.980;2023-07-31T04:50:26;14.63;;;4.60;;
50821;SDS011;36794;51.212;6.980;2023-07-31T04:52:53;14.77;;;4.57;;
50821;SDS011;36794;51.212;6.980;2023-07-31T04:55:19;16.70;;;5.00;;
50821;SDS011;36794;51.212;6.980;2023-07-31T04:57:45;13.27;;;4.75;;
50821;SDS011;36794;51.212;6.980;2023-07-31T05:00:11;15.35;;;4.63;;
50821;SDS011;36794;51.212;6.980;2023-07-31T05:02:37;17.02;;;5.22;;
50821;SDS011;36794;51.212;6.980;2023-07-31T05:05:03;14.63;;;4.53;;
50821;SDS011;36794;51.212;6.980;2023-07-31T05:07:29;13.82;;;4.53;;
50821;SDS011;36794;51.212;6.980;2023-07-31T05:09:55;15.27;;;4.45;;
50821;SDS011;36794;51.212;6.980;2023-07-31T05:12:20;12.27;;;4.65;;
50821;SDS011;36794;51.212;6.980;2023-07-31T05:14:46;11.55;;;4.90;;
50821;SDS011;36794;51.212;6.980;2023-07-31T05:17:12;9.82;;;4.10;;
50821;SDS011;36794;51.212;6.980;2023-07-31T05:19:38;9.55;;;4.32;;
50821;SDS011;36794;51.212;6.980;2023-07-31T05:22:05;10.85;;;4.82;;
50821;SDS011;36794;51.212;6.980;2023-07-31T05:24:31;13.88;;;5.13;;
50821;SDS011;36794;51.212;6.980;2023-07-31T05:26:58;11.30;;;4.38;;
50821;SDS011;36794;51.212;6.980;2023-07-31T05:29:24;11.55;;;4.18;;
50821;SDS011;36794;51.212;6.980;2023-07-31T05:31:50;14.50;;;4.47;;
50821;SDS011;36794;51.212;6.980;2023-07-31T05:34:16;12.60;;;3.95;;
50821;SDS011;36794;51.212;6.980;2023-07-31T05:36:42;9.45;;;4.88;;
50821;SDS011;36794;51.212;6.980;2023-07-31T05:39:08;11.20;;;5.38;;
50821;SDS011;36794;51.212;6.980;2023-07-31T05:41:35;11.60;;;4.50;;
50821;SDS011;36794;51.212;6.980;2023-07-31T05:44:01;12.60;;;4.30;;
50821;SDS011;36794;51.212;6.980;2023-07-31T05:46:27;13.25;;;4.38;;
50821;SDS011;36794;51.212;6.980;2023-07-31T05:48:53;12.20;;;4.28;;
50821;SDS011;36794;51.212;6.980;2023-07-31T05:51:19;12.98;;;4.75;;
50821;SDS011;36794;51.212;6.980;2023-07-31T05:53:45;8.57;;;4.32;;
50821;SDS011;36794;51.212;6.980;2023-07-31T05:56:11;9.23;;;4.00;;
50821;SDS011;36794;51.212;6.980;2023-07-31T05:58:36;9.00;;;4.40;;
50821;SDS011;36794;51.212;6.980;2023-07-31T06:01:02;10.02;;;4.18;;
50821;SDS011;36794;51.212;6.980;2023-07-31T06:03:28;11.02;;;4.53;;
50821;SDS011;36794;51.212;6.980;2023-07-31T06:05:55;13.48;;;4.70;;
50821;SDS011;36794;51.212;6.980;2023-07-31T06:08:21;10.02;;;4.00;;
50821;SDS011;36794;51.212;6.980;2023-07-31T06:10:47;9.80;;;4.30;;
50821;SDS011;36794;51.212;6.980;2023-07-31T06:13:13;10.73;;;4.10;;
50821;SDS011;36794;51.212;6.980;2023-07-31T06:15:39;11.02;;;3.90;;
50821;SDS011;36794;51.212;6.980;2023-07-31T06:18:05;10.25;;;3.97;;
50821;SDS011;36794;51.212;6.980;2023-07-31T06:20:33;13.75;;;4.13;;
50821;SDS011;36794;51.212;6.980;2023-07-31T06:22:59;12.40;;;4.20;;
50821;SDS011;36794;51.212;6.980;2023-07-31T06:25:25;9.93;;;4.20;;
50821;SDS011;36794;51.212;6.980;2023-07-31T06:27:51;12.77;;;4.07;;
50821;SDS011;36794;51.212;6.980;2023-07-31T06:30:17;11.07;;;4.00;;
50821;SDS011;36794;51.212;6.980;2023-07-31T06:32:43;10.30;;;4.60;;
50821;SDS011;36794;51.212;6.980;2023-07-31T06:35:08;10.10;;;4.13;;
50821;SDS011;36794;51.212;6.980;2023-07-31T06:37:35;12.88;;;4.28;;
50821;SDS011;36794;51.212;6.980;2023-07-31T06:40:01;9.55;;;4.32;;
50821;SDS011;36794;51.212;6.980;2023-07-31T06:42:27;11.23;;;4.53;;
50821;SDS011;36794;51.212;6.980;2023-07-31T06:44:53;11.02;;;4.90;;
50821;SDS011;36794;51.212;6.980;2023-07-31T06:47:19;10.80;;;4.25;;
50821;SDS011;36794;51.212;6.980;2023-07-31T06:49:45;8.65;;;4.30;;
50821;SDS011;36794;51.212;6.980;2023-07-31T06:52:11;9.52;;;4.30;;
50821;SDS011;36794;51.212;6.980;2023-07-31T06:54:37;14.70;;;4.70;;
50821;SDS011;36794;51.212;6.980;2023-07-31T06:57:03;16.27;;;4.90;;
50821;SDS011;36794;51.212;6.980;2023-07-31T06:59:28;9.27;;;4.28;;
50821;SDS011;36794;51.212;6.980;2023-07-31T07:01:54;11.07;;;4.85;;
50821;SDS011;36794;51.212;6.980;2023-07-31T07:04:20;11.43;;;4.82;;
50821;SDS011;36794;51.212;6.980;2023-07-31T07:06:46;8.82;;;4.35;;
50821;SDS011;36794;51.212;6.980;2023-07-31T07:09:12;16.08;;;4.90;;
50821;SDS011;36794;51.212;6.980;2023-07-31T07:11:38;12.85;;;5.20;;
50821;SDS011;36794;51.212;6.980;2023-07-31T07:14:04;9.75;;;4.70;;
50821;SDS011;36794;51.212;6.980;2023-07-31T07:16:30;12.63;;;4.93;;
50821;SDS011;36794;51.212;6.980;2023-07-31T07:18:56;12.82;;;4.65;;
50821;SDS011;36794;51.212;6.980;2023-07-31T07:21:22;14.23;;;5.05;;
50821;SDS011;36794;51.212;6.980;2023-07-31T07:23:48;11.82;;;4.30;;
50821;SDS011;36794;51.212;6.980;2023-07-31T07:26:14;10.90;;;4.78;;
50821;SDS011;36794;51.212;6.980;2023-07-31T07:28:40;11.13;;;4.53;;
50821;SDS011;36794;51.212;6.980;2023-07-31T07:31:06;13.15;;;4.60;;
50821;SDS011;36794;51.212;6.980;2023-07-31T07:33:32;11.85;;;4.53;;
50821;SDS011;36794;51.212;6.980;2023-07-31T07:36:01;12.25;;;4.75;;
50821;SDS011;36794;51.212;6.980;2023-07-31T07:38:27;14.13;;;4.85;;
50821;SDS011;36794;51.212;6.980;2023-07-31T07:40:53;11.48;;;4.82;;
50821;SDS011;36794;51.212;6.980;2023-07-31T07:43:19;16.00;;;4.53;;
50821;SDS011;36794;51.212;6.980;2023-07-31T07:45:45;14.55;;;5.00;;
50821;SDS011;36794;51.212;6.980;2023-07-31T07:48:11;12.98;;;4.53;;
50821;SDS011;36794;51.212;6.980;2023-07-31T07:50:40;13.23;;;5.18;;
50821;SDS011;36794;51.212;6.980;2023-07-31T07:53:06;11.43;;;5.00;;
50821;SDS011;36794;51.212;6.980;2023-07-31T07:55:32;12.55;;;4.95;;
50821;SDS011;36794;51.212;6.980;2023-07-31T07:57:58;13.27;;;4.45;;
50821;SDS011;36794;51.212;6.980;2023-07-31T08:00:24;15.00;;;5.53;;
50821;SDS011;36794;51.212;6.980;2023-07-31T08:02:50;12.95;;;4.60;;
50821;SDS011;36794;51.212;6.980;2023-07-31T08:05:16;15.10;;;5.20;;
50821;SDS011;36794;51.212;6.980;2023-07-31T08:07:42;11.25;;;4.80;;
50821;SDS011;36794;51.212;6.980;2023-07-31T08:10:08;15.77;;;4.68;;
50821;SDS011;36794;51.212;6.980;2023-07-31T08:12:34;14.23;;;4.50;;
50821;SDS011;36794;51.212;6.980;2023-07-31T08:15:00;10.73;;;4.30;;
50821;SDS011;36794;51.212;6.980;2023-07-31T08:17:26;16.20;;;4.70;;
50821;SDS011;36794;51.212;6.980;2023-07-31T08:19:52;16.65;;;4.93;;
50821;SDS011;36794;51.212;6.980;2023-07-31T08:22:18;10.65;;;4.13;;
50821;SDS011;36794;51.212;6.980;2023-07-31T08:24:44;11.43;;;4.40;;
50821;SDS011;36794;51.212;6.980;2023-07-31T08:27:10;11.85;;;4.72;;
50821;SDS011;36794;51.212;6.980;2023-07-31T08:29:36;10.52;;;5.15;;
50821;SDS011;36794;51.212;6.980;2023-07-31T08:32:02;9.70;;;3.92;;
50821;SDS011;36794;51.212;6.980;2023-07-31T08:34:28;9.82;;;4.07;;
50821;SDS011;36794;51.212;6.980;2023-07-31T08:36:54;10.73;;;3.95;;
50821;SDS011;36794;51.212;6.980;2023-07-31T08:39:20;12.30;;;3.83;;
50821;SDS011;36794;51.212;6.980;2023-07-31T08:41:47;13.05;;;4.43;;
50821;SDS011;36794;51.212;6.980;2023-07-31T08:44:13;10.05;;;3.90;;
50821;SDS011;36794;51.212;6.980;2023-07-31T08:46:39;10.30;;;3.70;;
50821;SDS011;36794;51.212;6.980;2023-07-31T08:49:05;9.18;;;3.92;;
50821;SDS011;36794;51.212;6.980;2023-07-31T08:51:36;8.13;;;3.55;;
50821;SDS011;36794;51.212;6.980;2023-07-31T08:54:02;9.57;;;3.22;;
50821;SDS011;36794;51.212;6.980;2023-07-31T08:56:29;9.05;;;3.78;;
50821;SDS011;36794;51.212;6.980;2023-07-31T08:58:55;7.53;;;3.53;;
50821;SDS011;36794;51.212;6.980;2023-07-31T09:01:22;9.43;;;3.60;;
50821;SDS011;36794;51.212;6.980;2023-07-31T09:03:49;8.77;;;3.67;;
50821;SDS011;36794;51.212;6.980;2023-07-31T09:06:16;6.43;;;3.10;;
50821;SDS011;36794;51.212;6.980;2023-07-31T09:08:44;9.73;;;3.10;;
50821;SDS011;36794;51.212;6.980;2023-07-31T09:11:10;10.60;;;3.30;;
50821;SDS011;36794;51.212;6.980;2023-07-31T09:13:36;7.28;;;3.20;;
50821;SDS011;36794;51.212;6.980;2023-07-31T09:16:02;9.98;;;3.50;;
50821;SDS011;36794;51.212;6.980;2023-07-31T09:18:29;11.10;;;3.72;;
50821;SDS011;36794;51.212;6.980;2023-07-31T09:21:01;9.20;;;3.67;;
50821;SDS011;36794;51.212;6.980;2023-07-31T09:23:27;9.95;;;3.72;;
50821;SDS011;36794;51.212;6.980;2023-07-31T09:26:05;12.02;;;4.22;;
50821;SDS011;36794;51.212;6.980;2023-07-31T09:28:31;11.05;;;4.00;;
50821;SDS011;36794;51.212;6.980;2023-07-31T09:30:57;8.25;;;3.80;;
50821;SDS011;36794;51.212;6.980;2023-07-31T09:33:23;12.68;;;4.35;;
50821;SDS011;36794;51.212;6.980;2023-07-31T09:35:49;13.00;;;4.05;;
50821;SDS011;36794;51.212;6.980;2023-07-31T09:38:15;12.30;;;4.45;;
50821;SDS011;36794;51.212;6.980;2023-07-31T09:40:42;11.05;;;3.72;;
50821;SDS011;36794;51.212;6.980;2023-07-31T09:43:09;11.25;;;4.20;;
50821;SDS011;36794;51.212;6.980;2023-07-31T09:45:42;9.75;;;3.72;;
50821;SDS011;36794;51.212;6.980;2023-07-31T09:48:09;11.68;;;3.97;;
50821;SDS011;36794;51.212;6.980;2023-07-31T09:50:39;10.02;;;4.10;;
50821;SDS011;36794;51.212;6.980;2023-07-31T09:53:05;10.77;;;4.35;;
50821;SDS011;36794;51.212;6.980;2023-07-31T09:55:32;10.77;;;4.30;;
50821;SDS011;36794;51.212;6.980;2023-07-31T09:57:58;15.10;;;4.95;;
50821;SDS011;36794;51.212;6.980;2023-07-31T10:00:24;11.80;;;4.68;;
50821;SDS011;36794;51.212;6.980;2023-07-31T10:02:53;12.27;;;4.78;;
50821;SDS011;36794;51.212;6.980;2023-07-31T10:05:19;10.80;;;4.63;;
50821;SDS011;36794;51.212;6.980;2023-07-31T10:07:51;12.95;;;5.00;;
50821;SDS011;36794;51.212;6.980;2023-07-31T10:10:19;14.00;;;4.47;;
50821;SDS011;36794;51.212;6.980;2023-07-31T10:12:46;10.18;;;4.55;;
50821;SDS011;36794;51.212;6.980;2023-07-31T10:15:13;11.63;;;4.30;;
50821;SDS011;36794;51.212;6.980;2023-07-31T10:17:40;12.60;;;3.88;;
50821;SDS011;36794;51.212;6.980;2023-07-31T10:20:06;10.73;;;4.45;;
50821;SDS011;36794;51.212;6.980;2023-07-31T10:22:32;9.85;;;4.13;;
50821;SDS011;36794;51.212;6.980;2023-07-31T10:24:58;8.32;;;4.00;;
50821;SDS011;36794;51.212;6.980;2023-07-31T10:27:25;12.95;;;4.15;;
50821;SDS011;36794;51.212;6.980;2023-07-31T10:29:52;14.60;;;4.30;;
50821;SDS011;36794;51.212;6.980;2023-07-31T10:32:18;12.63;;;6.00;;
50821;SDS011;36794;51.212;6.980;2023-07-31T10:34:45;10.38;;;4.63;;
50821;SDS011;36794;51.212;6.980;2023-07-31T10:37:24;8.32;;;3.95;;
50821;SDS011;36794;51.212;6.980;2023-07-31T10:42:36;19.38;;;4.82;;
50821;SDS011;36794;51.212;6.980;2023-07-31T10:45:10;13.07;;;4.32;;
50821;SDS011;36794;51.212;6.980;2023-07-31T10:47:42;9.18;;;4.05;;
50821;SDS011;36794;51.212;6.980;2023-07-31T10:52:38;11.32;;;4.28;;
50821;SDS011;36794;51.212;6.980;2023-07-31T10:55:24;12.50;;;3.90;;
50821;SDS011;36794;51.212;6.980;2023-07-31T10:57:50;8.82;;;3.80;;
50821;SDS011;36794;51.212;6.980;2023-07-31T11:02:56;8.52;;;3.85;;
50821;SDS011;36794;51.212;6.980;2023-07-31T11:05:32;8.38;;;3.50;;
50821;SDS011;36794;51.212;6.980;2023-07-31T11:10:38;10.30;;;3.53;;
50821;SDS011;36794;51.212;6.980;2023-07-31T11:13:04;13.10;;;3.85;;
50821;SDS011;36794;51.212;6.980;2023-07-31T11:15:30;12.52;;;3.83;;
50821;SDS011;36794;51.212;6.980;2023-07-31T11:17:56;8.02;;;3.40;;
50821;SDS011;36794;51.212;6.980;2023-07-31T11:20:25;8.68;;;2.78;;
50821;SDS011;36794;51.212;6.980;2023-07-31T11:22:51;7.15;;;2.78;;
50821;SDS011;36794;51.212;6.980;2023-07-31T11:25:17;5.60;;;2.40;;
50821;SDS011;36794;51.212;6.980;2023-07-31T11:27:43;9.70;;;2.58;;
50821;SDS011;36794;51.212;6.980;2023-07-31T11:30:10;6.45;;;2.40;;
50821;SDS011;36794;51.212;6.980;2023-07-31T11:32:36;4.88;;;1.70;;
50821;SDS011;36794;51.212;6.980;2023-07-31T11:35:02;5.13;;;1.80;;
50821;SDS011;36794;51.212;6.980;2023-07-31T11:37:40;4.25;;;1.73;;
50821;SDS011;36794;51.212;6.980;2023-07-31T11:40:06;4.65;;;1.75;;
50821;SDS011;36794;51.212;6.980;2023-07-31T11:42:34;3.45;;;1.52;;
50821;SDS011;36794;51.212;6.980;2023-07-31T11:45:02;3.22;;;1.40;;
50821;SDS011;36794;51.212;6.980;2023-07-31T11:47:28;5.68;;;1.77;;
50821;SDS011;36794;51.212;6.980;2023-07-31T11:49:55;3.33;;;1.27;;
50821;SDS011;36794;51.212;6.980;2023-07-31T11:52:21;3.80;;;1.27;;
50821;SDS011;36794;51.212;6.980;2023-07-31T11:54:48;7.85;;;1.33;;
50821;SDS011;36794;51.212;6.980;2023-07-31T11:57:15;4.53;;;1.38;;
50821;SDS011;36794;51.212;6.980;2023-07-31T11:59:41;3.13;;;1.20;;
50821;SDS011;36794;51.212;6.980;2023-07-31T12:02:07;1.80;;;0.95;;
50821;SDS011;36794;51.212;6.980;2023-07-31T12:04:33;3.75;;;1.30;;
50821;SDS011;36794;51.212;6.980;2023-07-31T12:07:00;7.10;;;1.58;;
50821;SDS011;36794;51.212;6.980;2023-07-31T12:09:26;3.20;;;1.35;;
50821;SDS011;36794;51.212;6.980;2023-07-31T12:11:52;2.08;;;1.20;;
50821;SDS011;36794;51.212;6.980;2023-07-31T12:14:24;2.83;;;1.10;;
50821;SDS011;36794;51.212;6.980;2023-07-31T12:16:54;2.03;;;1.15;;
50821;SDS011;36794;51.212;6.980;2023-07-31T12:19:21;3.25;;;1.17;;
50821;SDS011;36794;51.212;6.980;2023-07-31T12:21:46;2.75;;;1.40;;
50821;SDS011;36794;51.212;6.980;2023-07-31T12:24:12;2.58;;;1.30;;
50821;SDS011;36794;51.212;6.980;2023-07-31T12:26:39;4.40;;;1.27;;
50821;SDS011;36794;51.212;6.980;2023-07-31T12:29:06;4.32;;;1.48;;
50821;SDS011;36794;51.212;6.980;2023-07-31T12:31:33;1.85;;;1.40;;
50821;SDS011;36794;51.212;6.980;2023-07-31T12:33:59;3.88;;;1.30;;
50821;SDS011;36794;51.212;6.980;2023-07-31T12:36:27;2.88;;;1.40;;
50821;SDS011;36794;51.212;6.980;2023-07-31T12:38:55;4.78;;;1.40;;
50821;SDS011;36794;51.212;6.980;2023-07-31T12:41:23;3.78;;;1.20;;
50821;SDS011;36794;51.212;6.980;2023-07-31T12:43:49;2.83;;;1.60;;
50821;SDS011;36794;51.212;6.980;2023-07-31T12:46:15;5.45;;;1.70;;
50821;SDS011;36794;51.212;6.980;2023-07-31T12:48:42;3.53;;;1.52;;
50821;SDS011;36794;51.212;6.980;2023-07-31T12:51:08;3.83;;;1.80;;
50821;SDS011;36794;51.212;6.980;2023-07-31T12:53:33;7.00;;;1.90;;
50821;SDS011;36794;51.212;6.980;2023-07-31T12:56:00;2.78;;;1.70;;
50821;SDS011;36794;51.212;6.980;2023-07-31T12:58:26;4.57;;;1.60;;
50821;SDS011;36794;51.212;6.980;2023-07-31T13:00:52;5.32;;;1.75;;
50821;SDS011;36794;51.212;6.980;2023-07-31T13:03:18;5.00;;;1.85;;
50821;SDS011;36794;51.212;6.980;2023-07-31T13:05:44;5.00;;;1.75;;
50821;SDS011;36794;51.212;6.980;2023-07-31T13:08:10;3.13;;;1.50;;
50821;SDS011;36794;51.212;6.980;2023-07-31T13:10:36;2.92;;;1.88;;
50821;SDS011;36794;51.212;6.980;2023-07-31T13:13:02;6.80;;;2.03;;
50821;SDS011;36794;51.212;6.980;2023-07-31T13:15:28;4.75;;;2.10;;
50821;SDS011;36794;51.212;6.980;2023-07-31T13:17:54;4.05;;;1.80;;
50821;SDS011;36794;51.212;6.980;2023-07-31T13:20:20;3.50;;;2.05;;
50821;SDS011;36794;51.212;6.980;2023-07-31T13:22:46;7.18;;;2.05;;
50821;SDS011;36794;51.212;6.980;2023-07-31T13:25:12;6.68;;;2.63;;
50821;SDS011;36794;51.212;6.980;2023-07-31T13:27:38;4.97;;;2.30;;
50821;SDS011;36794;51.212;6.980;2023-07-31T13:30:04;4.70;;;2.40;;
50821;SDS011;36794;51.212;6.980;2023-07-31T13:32:31;4.85;;;2.28;;
50821;SDS011;36794;51.212;6.980;2023-07-31T13:34:57;3.95;;;2.25;;
50821;SDS011;36794;51.212;6.980;2023-07-31T13:37:22;4.00;;;2.42;;
50821;SDS011;36794;51.212;6.980;2023-07-31T13:39:48;4.82;;;1.85;;
50821;SDS011;36794;51.212;6.980;2023-07-31T13:42:14;7.25;;;2.45;;
50821;SDS011;36794;51.212;6.980;2023-07-31T13:44:41;5.15;;;2.42;;
50821;SDS011;36794;51.212;6.980;2023-07-31T13:47:07;5.20;;;2.80;;
50821;SDS011;36794;51.212;6.980;2023-07-31T13:49:34;5.32;;;2.58;;
50821;SDS011;36794;51.212;6.980;2023-07-31T13:52:00;6.45;;;2.42;;
50821;SDS011;36794;51.212;6.980;2023-07-31T13:54:26;5.22;;;2.55;;
50821;SDS011;36794;51.212;6.980;2023-07-31T13:56:53;6.40;;;2.70;;
50821;SDS011;36794;51.212;6.980;2023-07-31T13:59:19;4.60;;;2.20;;
50821;SDS011;36794;51.212;6.980;2023-07-31T14:01:45;5.60;;;2.17;;
50821;SDS011;36794;51.212;6.980;2023-07-31T14:04:11;4.13;;;2.05;;
50821;SDS011;36794;51.212;6.980;2023-07-31T14:06:37;4.28;;;2.30;;
50821;SDS011;36794;51.212;6.980;2023-07-31T14:09:03;2.97;;;2.13;;
50821;SDS011;36794;51.212;6.980;2023-07-31T14:11:30;5.10;;;2.25;;
50821;SDS011;36794;51.212;6.980;2023-07-31T14:13:56;5.00;;;2.40;;
50821;SDS011;36794;51.212;6.980;2023-07-31T14:16:22;6.45;;;2.58;;
50821;SDS011;36794;51.212;6.980;2023-07-31T14:18:48;5.43;;;2.13;;
50821;SDS011;36794;51.212;6.980;2023-07-31T14:21:14;5.18;;;2.22;;
50821;SDS011;36794;51.212;6.980;2023-07-31T14:23:40;12.88;;;2.63;;
50821;SDS011;36794;51.212;6.980;2023-07-31T14:26:06;5.22;;;2.20;;
50821;SDS011;36794;51.212;6.980;2023-07-31T14:28:32;4.70;;;2.20;;
50821;SDS011;36794;51.212;6.980;2023-07-31T14:30:58;4.47;;;1.80;;
50821;SDS011;36794;51.212;6.980;2023-07-31T14:33:24;3.60;;;1.98;;
50821;SDS011;36794;51.212;6.980;2023-07-31T14:35:51;4.90;;;2.33;;
50821;SDS011;36794;51.212;6.980;2023-07-31T14:38:17;5.07;;;2.25;;
50821;SDS011;36794;51.212;6.980;2023-07-31T14:40:43;4.97;;;2.38;;
50821;SDS011;36794;51.212;6.980;2023-07-31T14:43:09;4.70;;;2.03;;
50821;SDS011;36794;51.212;6.980;2023-07-31T14:45:35;4.55;;;2.25;;
50821;SDS011;36794;51.212;6.980;2023-07-31T14:48:01;4.68;;;2.10;;
50821;SDS011;36794;51.212;6.980;2023-07-31T14:50:27;3.95;;;1.95;;
50821;SDS011;36794;51.212;6.980;2023-07-31T14:52:54;4.25;;;2.67;;